sensor_id;sensor_type;location;lat;lon;timestamp;P1;durP1;ratioP1;P2;durP2;ratioP2
5147;SDS011;2592;48.140;7.614;2023-05-17T00:01:40;7.63;;;1.97;;
5147;SDS011;2592;48.140;7.614;2023-05-17T00:04:07;7.23;;;2.40;;
5147;SDS011;2592;48.140;7.614;2023-05-17T00:06:33;8.50;;;2.03;;
5147;SDS011;2592;48.140;7.614;2023-05-17T00:08:59;5.83;;;2.23;;
5147;SDS011;2592;48.140;7.614;2023-05-17T00:11:26;4.33;;;1.67;;
5147;SDS011;2592;48.140;7.614;2023-05-17T00:13:53;4.03;;;1.60;;
5147;SDS011;2592;48.140;7.614;2023-05-17T00:16:21;4.77;;;1.87;;
5147;SDS011;2592;48.140;7.614;2023-05-17T00:18:47;10.00;;;2.27;;
5147;SDS011;2592;48.140;7.614;2023-05-17T00:21:14;4.27;;;1.30;;
5147;SDS011;2592;48.140;7.614;2023-05-17T00:23:40;4.83;;;2.03;;
5147;SDS011;2592;48.140;7.614;2023-05-17T00:26:07;3.20;;;1.90;;
5147;SDS011;2592;48.140;7.614;2023-05-17T00:28:33;6.00;;;2.13;;
5147;SDS011;2592;48.140;7.614;2023-05-17T00:30:59;2.00;;;1.50;;
5147;SDS011;2592;48.140;7.614;2023-05-17T00:33:27;6.40;;;1.77;;
5147;SDS011;2592;48.140;7.614;2023-05-17T00:35:54;5.60;;;2.00;;
5147;SDS011;2592;48.140;7.614;2023-05-17T00:38:20;9.77;;;2.03;;
5147;SDS011;2592;48.140;7.614;2023-05-17T00:40:48;2.83;;;1.87;;
5147;SDS011;2592;48.140;7.614;2023-05-17T00:43:14;6.40;;;2.00;;
5147;SDS011;2592;48.140;7.614;2023-05-17T00:45:41;12.03;;;2.37;;
5147;SDS011;2592;48.140;7.614;2023-05-17T00:48:07;4.60;;;1.80;;
5147;SDS011;2592;48.140;7.614;2023-05-17T00:50:35;8.80;;;2.40;;
5147;SDS011;2592;48.140;7.614;2023-05-17T00:53:02;10.43;;;2.07;;
5147;SDS011;2592;48.140;7.614;2023-05-17T00:55:28;8.73;;;1.83;;
5147;SDS011;2592;48.140;7.614;2023-05-17T00:57:55;7.87;;;2.60;;
5147;SDS011;2592;48.140;7.614;2023-05-17T01:00:22;4.40;;;1.87;;
5147;SDS011;2592;48.140;7.614;2023-05-17T01:02:48;8.70;;;1.90;;
5147;SDS011;2592;48.140;7.614;2023-05-17T01:05:15;6.40;;;2.93;;
5147;SDS011;2592;48.140;7.614;2023-05-17T01:07:43;3.93;;;1.87;;
5147;SDS011;2592;48.140;7.614;2023-05-17T01:10:10;4.23;;;1.87;;
5147;SDS011;2592;48.140;7.614;2023-05-17T01:12:41;6.47;;;2.20;;
5147;SDS011;2592;48.140;7.614;2023-05-17T01:15:11;7.10;;;2.13;;
5147;SDS011;2592;48.140;7.614;2023-05-17T01:17:40;4.73;;;2.00;;
5147;SDS011;2592;48.140;7.614;2023-05-17T01:20:13;13.10;;;2.43;;
5147;SDS011;2592;48.140;7.614;2023-05-17T01:22:47;5.17;;;2.20;;
5147;SDS011;2592;48.140;7.614;2023-05-17T01:27:59;7.30;;;2.40;;
5147;SDS011;2592;48.140;7.614;2023-05-17T01:30:27;10.70;;;2.30;;
5147;SDS011;2592;48.140;7.614;2023-05-17T01:32:54;6.07;;;2.43;;
5147;SDS011;2592;48.140;7.614;2023-05-17T01:35:21;8.23;;;3.40;;
5147;SDS011;2592;48.140;7.614;2023-05-17T01:37:48;8.60;;;4.40;;
5147;SDS011;2592;48.140;7.614;2023-05-17T01:40:14;13.23;;;3.80;;
5147;SDS011;2592;48.140;7.614;2023-05-17T01:42:42;6.97;;;3.50;;
5147;SDS011;2592;48.140;7.614;2023-05-17T01:45:12;11.00;;;3.80;;
5147;SDS011;2592;48.140;7.614;2023-05-17T01:47:42;7.20;;;2.80;;
5147;SDS011;2592;48.140;7.614;2023-05-17T01:50:11;9.30;;;3.03;;
5147;SDS011;2592;48.140;7.614;2023-05-17T01:52:43;11.20;;;3.20;;
5147;SDS011;2592;48.140;7.614;2023-05-17T01:55:14;3.37;;;1.63;;
5147;SDS011;2592;48.140;7.614;2023-05-17T01:57:43;6.17;;;2.53;;
5147;SDS011;2592;48.140;7.614;2023-05-17T02:00:12;7.40;;;2.27;;
5147;SDS011;2592;48.140;7.614;2023-05-17T02:02:39;4.30;;;2.17;;
5147;SDS011;2592;48.140;7.614;2023-05-17T02:05:06;4.60;;;2.07;;
5147;SDS011;2592;48.140;7.614;2023-05-17T02:07:32;4.30;;;1.93;;
5147;SDS011;2592;48.140;7.614;2023-05-17T02:09:59;9.47;;;2.33;;
5147;SDS011;2592;48.140;7.614;2023-05-17T02:12:25;9.73;;;2.07;;
5147;SDS011;2592;48.140;7.614;2023-05-17T02:14:52;4.37;;;2.23;;
5147;SDS011;2592;48.140;7.614;2023-05-17T02:17:19;5.47;;;2.40;;
5147;SDS011;2592;48.140;7.614;2023-05-17T02:19:46;2.83;;;2.10;;
5147;SDS011;2592;48.140;7.614;2023-05-17T02:22:12;5.10;;;2.73;;
5147;SDS011;2592;48.140;7.614;2023-05-17T02:24:39;5.37;;;2.00;;
5147;SDS011;2592;48.140;7.614;2023-05-17T02:27:05;5.47;;;2.50;;
5147;SDS011;2592;48.140;7.614;2023-05-17T02:29:32;5.77;;;2.03;;
5147;SDS011;2592;48.140;7.614;2023-05-17T02:31:58;10.77;;;2.43;;
5147;SDS011;2592;48.140;7.614;2023-05-17T02:34:26;4.13;;;2.07;;
5147;SDS011;2592;48.140;7.614;2023-05-17T02:36:52;5.20;;;1.70;;
5147;SDS011;2592;48.140;7.614;2023-05-17T02:39:19;6.90;;;2.23;;
5147;SDS011;2592;48.140;7.614;2023-05-17T02:41:45;5.50;;;2.43;;
5147;SDS011;2592;48.140;7.614;2023-05-17T02:44:12;5.40;;;2.43;;
5147;SDS011;2592;48.140;7.614;2023-05-17T02:46:38;6.10;;;2.70;;
5147;SDS011;2592;48.140;7.614;2023-05-17T02:49:05;5.23;;;2.77;;
5147;SDS011;2592;48.140;7.614;2023-05-17T02:51:32;5.93;;;2.60;;
5147;SDS011;2592;48.140;7.614;2023-05-17T02:53:59;7.37;;;2.93;;
5147;SDS011;2592;48.140;7.614;2023-05-17T02:56:25;4.40;;;2.73;;
5147;SDS011;2592;48.140;7.614;2023-05-17T02:58:52;5.60;;;2.70;;
5147;SDS011;2592;48.140;7.614;2023-05-17T03:01:19;7.87;;;2.90;;
5147;SDS011;2592;48.140;7.614;2023-05-17T03:03:45;7.07;;;2.50;;
5147;SDS011;2592;48.140;7.614;2023-05-17T03:06:12;7.27;;;2.40;;
5147;SDS011;2592;48.140;7.614;2023-05-17T03:08:40;5.30;;;2.53;;
5147;SDS011;2592;48.140;7.614;2023-05-17T03:11:07;3.00;;;2.00;;
5147;SDS011;2592;48.140;7.614;2023-05-17T03:13:33;4.20;;;2.30;;
5147;SDS011;2592;48.140;7.614;2023-05-17T03:16:00;3.97;;;2.20;;
5147;SDS011;2592;48.140;7.614;2023-05-17T03:18:26;7.97;;;2.77;;
5147;SDS011;2592;48.140;7.614;2023-05-17T03:20:53;6.13;;;2.53;;
5147;SDS011;2592;48.140;7.614;2023-05-17T03:23:19;7.00;;;2.30;;
5147;SDS011;2592;48.140;7.614;2023-05-17T03:25:47;5.37;;;2.07;;
5147;SDS011;2592;48.140;7.614;2023-05-17T03:28:14;8.33;;;2.33;;
5147;SDS011;2592;48.140;7.614;2023-05-17T03:30:40;5.63;;;2.63;;
5147;SDS011;2592;48.140;7.614;2023-05-17T03:33:06;10.77;;;2.27;;
5147;SDS011;2592;48.140;7.614;2023-05-17T03:35:33;5.23;;;2.57;;
5147;SDS011;2592;48.140;7.614;2023-05-17T03:37:59;6.63;;;2.37;;
5147;SDS011;2592;48.140;7.614;2023-05-17T03:40:26;4.30;;;1.97;;
5147;SDS011;2592;48.140;7.614;2023-05-17T03:42:54;4.23;;;2.87;;
5147;SDS011;2592;48.140;7.614;2023-05-17T03:45:21;5.73;;;2.47;;
5147;SDS011;2592;48.140;7.614;2023-05-17T03:47:48;8.17;;;2.60;;
5147;SDS011;2592;48.140;7.614;2023-05-17T03:50:14;2.60;;;1.80;;
5147;SDS011;2592;48.140;7.614;2023-05-17T03:52:41;7.20;;;2.67;;
5147;SDS011;2592;48.140;7.614;2023-05-17T03:55:07;2.47;;;2.17;;
5147;SDS011;2592;48.140;7.614;2023-05-17T03:57:34;4.97;;;2.53;;
5147;SDS011;2592;48.140;7.614;2023-05-17T04:00:02;4.60;;;2.20;;
5147;SDS011;2592;48.140;7.614;2023-05-17T04:02:30;5.23;;;2.33;;
5147;SDS011;2592;48.140;7.614;2023-05-17T04:04:57;5.70;;;2.70;;
5147;SDS011;2592;48.140;7.614;2023-05-17T04:07:23;10.67;;;2.40;;
5147;SDS011;2592;48.140;7.614;2023-05-17T04:09:50;6.20;;;2.67;;
5147;SDS011;2592;48.140;7.614;2023-05-17T04:12:17;7.73;;;3.20;;
5147;SDS011;2592;48.140;7.614;2023-05-17T04:14:43;5.10;;;2.80;;
5147;SDS011;2592;48.140;7.614;2023-05-17T04:17:11;6.00;;;3.23;;
5147;SDS011;2592;48.140;7.614;2023-05-17T04:19:38;7.17;;;3.47;;
5147;SDS011;2592;48.140;7.614;2023-05-17T04:22:04;11.43;;;2.60;;
5147;SDS011;2592;48.140;7.614;2023-05-17T04:24:31;6.83;;;3.13;;
5147;SDS011;2592;48.140;7.614;2023-05-17T04:26:57;7.83;;;3.27;;
5147;SDS011;2592;48.140;7.614;2023-05-17T04:29:24;10.00;;;3.40;;
5147;SDS011;2592;48.140;7.614;2023-05-17T04:31:50;5.37;;;2.60;;
5147;SDS011;2592;48.140;7.614;2023-05-17T04:34:18;7.60;;;2.77;;
5147;SDS011;2592;48.140;7.614;2023-05-17T04:36:46;4.50;;;2.60;;
5147;SDS011;2592;48.140;7.614;2023-05-17T04:39:12;4.90;;;3.13;;
5147;SDS011;2592;48.140;7.614;2023-05-17T04:41:39;8.57;;;3.07;;
5147;SDS011;2592;48.140;7.614;2023-05-17T04:44:05;5.03;;;3.00;;
5147;SDS011;2592;48.140;7.614;2023-05-17T04:46:32;7.57;;;3.20;;
5147;SDS011;2592;48.140;7.614;2023-05-17T04:48:59;8.57;;;3.37;;
5147;SDS011;2592;48.140;7.614;2023-05-17T04:51:28;8.80;;;3.90;;
5147;SDS011;2592;48.140;7.614;2023-05-17T04:53:54;5.23;;;3.20;;
5147;SDS011;2592;48.140;7.614;2023-05-17T04:56:21;15.43;;;4.10;;
5147;SDS011;2592;48.140;7.614;2023-05-17T04:58:47;6.63;;;3.27;;
5147;SDS011;2592;48.140;7.614;2023-05-17T05:01:14;8.90;;;3.50;;
5147;SDS011;2592;48.140;7.614;2023-05-17T05:03:41;6.93;;;3.30;;
5147;SDS011;2592;48.140;7.614;2023-05-17T05:06:07;5.73;;;3.70;;
5147;SDS011;2592;48.140;7.614;2023-05-17T05:08:35;9.87;;;3.90;;
5147;SDS011;2592;48.140;7.614;2023-05-17T05:11:02;4.27;;;2.63;;
5147;SDS011;2592;48.140;7.614;2023-05-17T05:13:29;11.77;;;2.83;;
5147;SDS011;2592;48.140;7.614;2023-05-17T05:15:55;7.10;;;2.87;;
5147;SDS011;2592;48.140;7.614;2023-05-17T05:18:22;5.63;;;3.00;;
5147;SDS011;2592;48.140;7.614;2023-05-17T05:20:48;8.33;;;2.77;;
5147;SDS011;2592;48.140;7.614;2023-05-17T05:23:15;6.37;;;3.60;;
5147;SDS011;2592;48.140;7.614;2023-05-17T05:25:44;11.50;;;3.80;;
5147;SDS011;2592;48.140;7.614;2023-05-17T05:28:11;11.80;;;4.20;;
5147;SDS011;2592;48.140;7.614;2023-05-17T05:30:38;4.60;;;2.30;;
5147;SDS011;2592;48.140;7.614;2023-05-17T05:33:05;3.40;;;2.53;;
5147;SDS011;2592;48.140;7.614;2023-05-17T05:35:31;5.73;;;3.20;;
5147;SDS011;2592;48.140;7.614;2023-05-17T05:37:58;7.20;;;3.03;;
5147;SDS011;2592;48.140;7.614;2023-05-17T05:40:24;6.70;;;3.40;;
5147;SDS011;2592;48.140;7.614;2023-05-17T05:42:52;6.17;;;2.70;;
5147;SDS011;2592;48.140;7.614;2023-05-17T05:45:18;6.17;;;3.13;;
5147;SDS011;2592;48.140;7.614;2023-05-17T05:47:45;9.60;;;4.60;;
5147;SDS011;2592;48.140;7.614;2023-05-17T05:50:12;7.67;;;3.30;;
5147;SDS011;2592;48.140;7.614;2023-05-17T05:52:38;8.30;;;3.23;;
5147;SDS011;2592;48.140;7.614;2023-05-17T05:55:05;10.30;;;3.90;;
5147;SDS011;2592;48.140;7.614;2023-05-17T05:57:32;8.83;;;4.07;;
5147;SDS011;2592;48.140;7.614;2023-05-17T05:59:59;12.40;;;4.33;;
5147;SDS011;2592;48.140;7.614;2023-05-17T06:02:26;13.20;;;4.60;;
5147;SDS011;2592;48.140;7.614;2023-05-17T06:04:52;8.60;;;3.40;;
5147;SDS011;2592;48.140;7.614;2023-05-17T06:07:19;8.77;;;4.20;;
5147;SDS011;2592;48.140;7.614;2023-05-17T06:09:45;5.93;;;3.37;;
5147;SDS011;2592;48.140;7.614;2023-05-17T06:12:12;10.50;;;4.30;;
5147;SDS011;2592;48.140;7.614;2023-05-17T06:14:38;8.70;;;3.30;;
5147;SDS011;2592;48.140;7.614;2023-05-17T06:17:06;8.23;;;4.20;;
5147;SDS011;2592;48.140;7.614;2023-05-17T06:19:33;8.27;;;3.30;;
5147;SDS011;2592;48.140;7.614;2023-05-17T06:21:59;7.17;;;4.13;;
5147;SDS011;2592;48.140;7.614;2023-05-17T06:24:25;6.13;;;3.13;;
5147;SDS011;2592;48.140;7.614;2023-05-17T06:26:52;7.50;;;3.40;;
5147;SDS011;2592;48.140;7.614;2023-05-17T06:29:18;8.63;;;3.60;;
5147;SDS011;2592;48.140;7.614;2023-05-17T06:31:45;7.60;;;3.50;;
5147;SDS011;2592;48.140;7.614;2023-05-17T06:34:13;9.20;;;3.13;;
5147;SDS011;2592;48.140;7.614;2023-05-17T06:36:39;7.60;;;3.20;;
5147;SDS011;2592;48.140;7.614;2023-05-17T06:39:05;8.90;;;3.23;;
5147;SDS011;2592;48.140;7.614;2023-05-17T06:41:32;6.80;;;2.83;;
5147;SDS011;2592;48.140;7.614;2023-05-17T06:43:59;5.60;;;3.63;;
5147;SDS011;2592;48.140;7.614;2023-05-17T06:46:25;10.03;;;3.90;;
5147;SDS011;2592;48.140;7.614;2023-05-17T06:48:52;7.20;;;2.87;;
5147;SDS011;2592;48.140;7.614;2023-05-17T06:51:20;10.47;;;3.47;;
5147;SDS011;2592;48.140;7.614;2023-05-17T06:53:46;7.77;;;3.53;;
5147;SDS011;2592;48.140;7.614;2023-05-17T06:56:12;9.40;;;4.03;;
5147;SDS011;2592;48.140;7.614;2023-05-17T06:58:39;5.53;;;3.37;;
5147;SDS011;2592;48.140;7.614;2023-05-17T07:01:06;9.60;;;4.07;;
5147;SDS011;2592;48.140;7.614;2023-05-17T07:03:32;7.43;;;3.20;;
5147;SDS011;2592;48.140;7.614;2023-05-17T07:05:59;10.60;;;4.37;;
5147;SDS011;2592;48.140;7.614;2023-05-17T07:08:27;6.50;;;3.67;;
5147;SDS011;2592;48.140;7.614;2023-05-17T07:10:54;7.43;;;3.83;;
5147;SDS011;2592;48.140;7.614;2023-05-17T07:13:20;10.40;;;3.60;;
5147;SDS011;2592;48.140;7.614;2023-05-17T07:15:46;8.63;;;3.30;;
5147;SDS011;2592;48.140;7.614;2023-05-17T07:18:13;7.80;;;3.57;;
5147;SDS011;2592;48.140;7.614;2023-05-17T07:20:40;10.63;;;3.60;;
5147;SDS011;2592;48.140;7.614;2023-05-17T07:23:07;12.70;;;3.40;;
5147;SDS011;2592;48.140;7.614;2023-05-17T07:25:34;9.43;;;3.40;;
5147;SDS011;2592;48.140;7.614;2023-05-17T07:28:02;10.80;;;3.83;;
5147;SDS011;2592;48.140;7.614;2023-05-17T07:30:29;11.97;;;4.50;;
5147;SDS011;2592;48.140;7.614;2023-05-17T07:32:56;9.53;;;3.90;;
5147;SDS011;2592;48.140;7.614;2023-05-17T07:35:22;7.37;;;3.50;;
5147;SDS011;2592;48.140;7.614;2023-05-17T07:37:48;9.53;;;3.17;;
5147;SDS011;2592;48.140;7.614;2023-05-17T07:40:15;8.63;;;3.80;;
5147;SDS011;2592;48.140;7.614;2023-05-17T07:42:43;8.00;;;4.10;;
5147;SDS011;2592;48.140;7.614;2023-05-17T07:45:09;9.33;;;3.67;;
5147;SDS011;2592;48.140;7.614;2023-05-17T07:47:36;10.73;;;4.07;;
5147;SDS011;2592;48.140;7.614;2023-05-17T07:50:03;7.30;;;3.10;;
5147;SDS011;2592;48.140;7.614;2023-05-17T07:52:29;12.23;;;4.00;;
5147;SDS011;2592;48.140;7.614;2023-05-17T07:54:56;5.80;;;3.30;;
5147;SDS011;2592;48.140;7.614;2023-05-17T07:57:22;10.33;;;4.20;;
5147;SDS011;2592;48.140;7.614;2023-05-17T07:59:50;7.97;;;3.80;;
5147;SDS011;2592;48.140;7.614;2023-05-17T08:02:17;7.07;;;3.20;;
5147;SDS011;2592;48.140;7.614;2023-05-17T08:04:43;15.43;;;3.80;;
5147;SDS011;2592;48.140;7.614;2023-05-17T08:07:10;9.60;;;3.67;;
5147;SDS011;2592;48.140;7.614;2023-05-17T08:09:36;7.90;;;3.40;;
5147;SDS011;2592;48.140;7.614;2023-05-17T08:12:04;9.00;;;3.63;;
5147;SDS011;2592;48.140;7.614;2023-05-17T08:14:30;7.43;;;3.47;;
5147;SDS011;2592;48.140;7.614;2023-05-17T08:16:58;7.83;;;3.23;;
5147;SDS011;2592;48.140;7.614;2023-05-17T08:19:25;8.30;;;3.30;;
5147;SDS011;2592;48.140;7.614;2023-05-17T08:21:52;9.20;;;3.40;;
5147;SDS011;2592;48.140;7.614;2023-05-17T08:24:18;6.90;;;3.20;;
5147;SDS011;2592;48.140;7.614;2023-05-17T08:26:45;15.37;;;3.33;;
5147;SDS011;2592;48.140;7.614;2023-05-17T08:29:11;7.30;;;3.03;;
5147;SDS011;2592;48.140;7.614;2023-05-17T08:31:38;7.57;;;3.80;;
5147;SDS011;2592;48.140;7.614;2023-05-17T08:34:05;8.97;;;3.10;;
5147;SDS011;2592;48.140;7.614;2023-05-17T08:36:32;4.67;;;2.83;;
5147;SDS011;2592;48.140;7.614;2023-05-17T08:38:58;7.83;;;3.70;;
5147;SDS011;2592;48.140;7.614;2023-05-17T08:41:25;5.50;;;2.77;;
5147;SDS011;2592;48.140;7.614;2023-05-17T08:43:52;7.30;;;2.90;;
5147;SDS011;2592;48.140;7.614;2023-05-17T08:46:19;10.80;;;3.83;;
5147;SDS011;2592;48.140;7.614;2023-05-17T08:48:47;14.43;;;3.80;;
5147;SDS011;2592;48.140;7.614;2023-05-17T08:51:17;11.20;;;3.73;;
5147;SDS011;2592;48.140;7.614;2023-05-17T08:53:44;10.57;;;3.37;;
5147;SDS011;2592;48.140;7.614;2023-05-17T08:56:11;9.50;;;3.30;;
5147;SDS011;2592;48.140;7.614;2023-05-17T08:58:39;8.30;;;3.30;;
5147;SDS011;2592;48.140;7.614;2023-05-17T09:01:08;5.93;;;3.43;;
5147;SDS011;2592;48.140;7.614;2023-05-17T09:03:34;6.77;;;4.03;;
5147;SDS011;2592;48.140;7.614;2023-05-17T09:06:01;5.40;;;3.50;;
5147;SDS011;2592;48.140;7.614;2023-05-17T09:08:30;6.77;;;3.77;;
5147;SDS011;2592;48.140;7.614;2023-05-17T09:10:57;5.70;;;3.20;;
5147;SDS011;2592;48.140;7.614;2023-05-17T09:13:23;6.00;;;3.27;;
5147;SDS011;2592;48.140;7.614;2023-05-17T09:15:50;5.33;;;3.27;;
5147;SDS011;2592;48.140;7.614;2023-05-17T09:18:18;6.80;;;3.47;;
5147;SDS011;2592;48.140;7.614;2023-05-17T09:20:48;10.73;;;3.30;;
5147;SDS011;2592;48.140;7.614;2023-05-17T09:23:17;8.93;;;4.00;;
5147;SDS011;2592;48.140;7.614;2023-05-17T09:25:47;9.20;;;3.77;;
5147;SDS011;2592;48.140;7.614;2023-05-17T09:28:13;5.80;;;2.80;;
5147;SDS011;2592;48.140;7.614;2023-05-17T09:30:40;6.60;;;3.23;;
5147;SDS011;2592;48.140;7.614;2023-05-17T09:33:09;6.63;;;4.07;;
5147;SDS011;2592;48.140;7.614;2023-05-17T09:35:36;9.80;;;3.67;;
5147;SDS011;2592;48.140;7.614;2023-05-17T09:38:04;6.90;;;3.00;;
5147;SDS011;2592;48.140;7.614;2023-05-17T09:40:31;6.17;;;3.70;;
5147;SDS011;2592;48.140;7.614;2023-05-17T09:42:59;9.90;;;4.20;;
5147;SDS011;2592;48.140;7.614;2023-05-17T09:45:25;6.90;;;4.00;;
5147;SDS011;2592;48.140;7.614;2023-05-17T09:47:52;10.20;;;4.77;;
5147;SDS011;2592;48.140;7.614;2023-05-17T09:50:19;6.63;;;3.67;;
5147;SDS011;2592;48.140;7.614;2023-05-17T09:52:45;18.57;;;3.93;;
5147;SDS011;2592;48.140;7.614;2023-05-17T09:55:12;7.67;;;3.43;;
5147;SDS011;2592;48.140;7.614;2023-05-17T09:57:39;7.03;;;3.60;;
5147;SDS011;2592;48.140;7.614;2023-05-17T10:00:07;9.07;;;4.27;;
5147;SDS011;2592;48.140;7.614;2023-05-17T10:02:36;7.67;;;4.23;;
5147;SDS011;2592;48.140;7.614;2023-05-17T10:05:04;6.03;;;3.07;;
5147;SDS011;2592;48.140;7.614;2023-05-17T10:07:30;5.23;;;3.40;;
5147;SDS011;2592;48.140;7.614;2023-05-17T10:09:57;6.63;;;3.23;;
5147;SDS011;2592;48.140;7.614;2023-05-17T10:12:24;8.30;;;4.07;;
5147;SDS011;2592;48.140;7.614;2023-05-17T10:14:53;12.53;;;3.37;;
5147;SDS011;2592;48.140;7.614;2023-05-17T10:17:22;6.40;;;3.63;;
5147;SDS011;2592;48.140;7.614;2023-05-17T10:19:49;7.37;;;4.47;;
5147;SDS011;2592;48.140;7.614;2023-05-17T10:22:16;5.50;;;3.77;;
5147;SDS011;2592;48.140;7.614;2023-05-17T10:24:43;7.97;;;3.60;;
5147;SDS011;2592;48.140;7.614;2023-05-17T10:27:10;9.03;;;3.13;;
5147;SDS011;2592;48.140;7.614;2023-05-17T10:29:37;5.80;;;3.93;;
5147;SDS011;2592;48.140;7.614;2023-05-17T10:32:04;5.13;;;3.17;;
5147;SDS011;2592;48.140;7.614;2023-05-17T10:34:34;11.20;;;4.17;;
5147;SDS011;2592;48.140;7.614;2023-05-17T10:37:01;6.80;;;3.13;;
5147;SDS011;2592;48.140;7.614;2023-05-17T10:39:28;8.83;;;4.10;;
5147;SDS011;2592;48.140;7.614;2023-05-17T10:41:56;5.60;;;3.07;;
5147;SDS011;2592;48.140;7.614;2023-05-17T10:44:22;7.33;;;3.20;;
5147;SDS011;2592;48.140;7.614;2023-05-17T10:46:50;6.30;;;3.17;;
5147;SDS011;2592;48.140;7.614;2023-05-17T10:49:16;17.00;;;4.03;;
5147;SDS011;2592;48.140;7.614;2023-05-17T10:51:44;8.50;;;3.27;;
5147;SDS011;2592;48.140;7.614;2023-05-17T10:54:11;11.70;;;3.67;;
5147;SDS011;2592;48.140;7.614;2023-05-17T10:56:46;6.13;;;3.00;;
5147;SDS011;2592;48.140;7.614;2023-05-17T10:59:17;25.43;;;3.60;;
5147;SDS011;2592;48.140;7.614;2023-05-17T11:01:52;6.23;;;3.60;;
5147;SDS011;2592;48.140;7.614;2023-05-17T11:04:19;14.40;;;3.47;;
5147;SDS011;2592;48.140;7.614;2023-05-17T11:06:48;6.43;;;3.67;;
5147;SDS011;2592;48.140;7.614;2023-05-17T11:09:14;6.30;;;3.43;;
5147;SDS011;2592;48.140;7.614;2023-05-17T11:14:22;5.63;;;2.90;;
5147;SDS011;2592;48.140;7.614;2023-05-17T11:16:49;7.23;;;2.60;;
5147;SDS011;2592;48.140;7.614;2023-05-17T11:19:21;5.93;;;2.40;;
5147;SDS011;2592;48.140;7.614;2023-05-17T11:21:49;8.43;;;3.70;;
5147;SDS011;2592;48.140;7.614;2023-05-17T11:24:18;7.23;;;3.40;;
5147;SDS011;2592;48.140;7.614;2023-05-17T11:26:49;5.60;;;2.67;;
5147;SDS011;2592;48.140;7.614;2023-05-17T11:29:16;4.00;;;2.70;;
5147;SDS011;2592;48.140;7.614;2023-05-17T11:31:43;8.60;;;3.20;;
5147;SDS011;2592;48.140;7.614;2023-05-17T11:34:09;7.03;;;3.00;;
5147;SDS011;2592;48.140;7.614;2023-05-17T11:36:47;9.60;;;3.30;;
5147;SDS011;2592;48.140;7.614;2023-05-17T11:39:17;4.60;;;2.70;;
5147;SDS011;2592;48.140;7.614;2023-05-17T11:41:48;14.03;;;4.00;;
5147;SDS011;2592;48.140;7.614;2023-05-17T11:44:15;9.60;;;3.20;;
5147;SDS011;2592;48.140;7.614;2023-05-17T11:46:43;9.60;;;3.23;;
5147;SDS011;2592;48.140;7.614;2023-05-17T11:49:09;7.53;;;2.97;;
5147;SDS011;2592;48.140;7.614;2023-05-17T11:51:36;5.30;;;3.03;;
5147;SDS011;2592;48.140;7.614;2023-05-17T11:54:03;6.40;;;3.37;;
5147;SDS011;2592;48.140;7.614;2023-05-17T11:56:34;7.67;;;4.00;;
5147;SDS011;2592;48.140;7.614;2023-05-17T11:59:01;6.23;;;3.60;;
5147;SDS011;2592;48.140;7.614;2023-05-17T12:01:28;7.27;;;3.30;;
5147;SDS011;2592;48.140;7.614;2023-05-17T12:04:06;7.03;;;3.57;;
5147;SDS011;2592;48.140;7.614;2023-05-17T12:06:33;4.50;;;3.07;;
5147;SDS011;2592;48.140;7.614;2023-05-17T12:09:00;6.30;;;3.37;;
5147;SDS011;2592;48.140;7.614;2023-05-17T12:11:27;5.73;;;3.40;;
5147;SDS011;2592;48.140;7.614;2023-05-17T12:13:55;10.43;;;3.07;;
5147;SDS011;2592;48.140;7.614;2023-05-17T12:16:21;7.33;;;3.47;;
5147;SDS011;2592;48.140;7.614;2023-05-17T12:18:49;6.00;;;3.83;;
5147;SDS011;2592;48.140;7.614;2023-05-17T12:21:16;9.27;;;4.07;;
5147;SDS011;2592;48.140;7.614;2023-05-17T12:23:43;6.83;;;4.03;;
5147;SDS011;2592;48.140;7.614;2023-05-17T12:26:10;6.77;;;4.03;;
5147;SDS011;2592;48.140;7.614;2023-05-17T12:28:38;11.97;;;4.47;;
5147;SDS011;2592;48.140;7.614;2023-05-17T12:31:07;8.20;;;4.30;;
5147;SDS011;2592;48.140;7.614;2023-05-17T12:33:35;11.00;;;4.50;;
5147;SDS011;2592;48.140;7.614;2023-05-17T12:36:03;9.97;;;4.70;;
5147;SDS011;2592;48.140;7.614;2023-05-17T12:38:30;7.83;;;4.37;;
5147;SDS011;2592;48.140;7.614;2023-05-17T12:40:57;10.07;;;4.03;;
5147;SDS011;2592;48.140;7.614;2023-05-17T12:43:24;9.80;;;3.33;;
5147;SDS011;2592;48.140;7.614;2023-05-17T12:45:52;11.10;;;4.77;;
5147;SDS011;2592;48.140;7.614;2023-05-17T12:48:24;9.47;;;4.43;;
5147;SDS011;2592;48.140;7.614;2023-05-17T12:50:51;7.43;;;4.43;;
5147;SDS011;2592;48.140;7.614;2023-05-17T12:53:20;10.90;;;4.17;;
5147;SDS011;2592;48.140;7.614;2023-05-17T12:55:46;21.77;;;6.27;;
5147;SDS011;2592;48.140;7.614;2023-05-17T12:58:13;11.30;;;4.67;;
5147;SDS011;2592;48.140;7.614;2023-05-17T13:00:39;11.00;;;3.70;;
5147;SDS011;2592;48.140;7.614;2023-05-17T13:03:08;7.50;;;4.23;;
5147;SDS011;2592;48.140;7.614;2023-05-17T13:05:36;9.33;;;5.17;;
5147;SDS011;2592;48.140;7.614;2023-05-17T13:08:19;10.73;;;4.13;;
5147;SDS011;2592;48.140;7.614;2023-05-17T13:10:45;5.93;;;4.23;;
5147;SDS011;2592;48.140;7.614;2023-05-17T13:13:16;9.20;;;4.33;;
5147;SDS011;2592;48.140;7.614;2023-05-17T13:15:43;11.97;;;5.00;;
5147;SDS011;2592;48.140;7.614;2023-05-17T13:18:11;7.20;;;4.37;;
5147;SDS011;2592;48.140;7.614;2023-05-17T13:20:39;10.97;;;4.90;;
5147;SDS011;2592;48.140;7.614;2023-05-17T13:23:05;7.10;;;4.13;;
5147;SDS011;2592;48.140;7.614;2023-05-17T13:25:32;6.97;;;4.50;;
5147;SDS011;2592;48.140;7.614;2023-05-17T13:28:00;9.77;;;5.97;;
5147;SDS011;2592;48.140;7.614;2023-05-17T13:30:27;20.27;;;5.83;;
5147;SDS011;2592;48.140;7.614;2023-05-17T13:32:54;8.23;;;4.93;;
5147;SDS011;2592;48.140;7.614;2023-05-17T13:35:20;11.90;;;5.63;;
5147;SDS011;2592;48.140;7.614;2023-05-17T13:37:48;12.70;;;4.87;;
5147;SDS011;2592;48.140;7.614;2023-05-17T13:40:15;22.93;;;6.13;;
5147;SDS011;2592;48.140;7.614;2023-05-17T13:42:41;7.67;;;4.80;;
5147;SDS011;2592;48.140;7.614;2023-05-17T13:45:08;10.47;;;5.10;;
5147;SDS011;2592;48.140;7.614;2023-05-17T13:47:36;8.87;;;4.40;;
5147;SDS011;2592;48.140;7.614;2023-05-17T13:50:03;11.30;;;4.83;;
5147;SDS011;2592;48.140;7.614;2023-05-17T13:52:30;10.40;;;4.80;;
5147;SDS011;2592;48.140;7.614;2023-05-17T13:54:58;11.80;;;4.30;;
5147;SDS011;2592;48.140;7.614;2023-05-17T13:57:24;10.90;;;4.47;;
5147;SDS011;2592;48.140;7.614;2023-05-17T13:59:51;9.47;;;4.60;;
5147;SDS011;2592;48.140;7.614;2023-05-17T14:02:17;11.23;;;4.43;;
5147;SDS011;2592;48.140;7.614;2023-05-17T14:04:43;12.90;;;4.87;;
5147;SDS011;2592;48.140;7.614;2023-05-17T14:07:10;9.47;;;4.00;;
5147;SDS011;2592;48.140;7.614;2023-05-17T14:09:36;11.53;;;4.83;;
5147;SDS011;2592;48.140;7.614;2023-05-17T14:12:05;9.40;;;3.73;;
5147;SDS011;2592;48.140;7.614;2023-05-17T14:14:31;12.73;;;3.90;;
5147;SDS011;2592;48.140;7.614;2023-05-17T14:16:58;14.57;;;4.50;;
5147;SDS011;2592;48.140;7.614;2023-05-17T14:19:25;9.10;;;4.50;;
5147;SDS011;2592;48.140;7.614;2023-05-17T14:21:51;6.30;;;3.80;;
5147;SDS011;2592;48.140;7.614;2023-05-17T14:24:18;10.00;;;4.40;;
5147;SDS011;2592;48.140;7.614;2023-05-17T14:26:44;8.90;;;4.93;;
5147;SDS011;2592;48.140;7.614;2023-05-17T14:29:12;16.20;;;4.43;;
5147;SDS011;2592;48.140;7.614;2023-05-17T14:31:39;9.00;;;3.90;;
5147;SDS011;2592;48.140;7.614;2023-05-17T14:34:05;9.17;;;4.30;;
5147;SDS011;2592;48.140;7.614;2023-05-17T14:36:32;11.77;;;4.20;;
5147;SDS011;2592;48.140;7.614;2023-05-17T14:39:00;11.23;;;4.70;;
5147;SDS011;2592;48.140;7.614;2023-05-17T14:41:27;8.10;;;4.30;;
5147;SDS011;2592;48.140;7.614;2023-05-17T14:43:54;12.00;;;3.80;;
5147;SDS011;2592;48.140;7.614;2023-05-17T14:46:22;9.93;;;3.20;;
5147;SDS011;2592;48.140;7.614;2023-05-17T14:48:48;9.30;;;4.23;;
5147;SDS011;2592;48.140;7.614;2023-05-17T14:51:16;6.40;;;4.20;;
5147;SDS011;2592;48.140;7.614;2023-05-17T14:53:42;11.13;;;5.00;;
5147;SDS011;2592;48.140;7.614;2023-05-17T14:56:09;9.30;;;3.87;;
5147;SDS011;2592;48.140;7.614;2023-05-17T14:58:36;8.10;;;4.70;;
5147;SDS011;2592;48.140;7.614;2023-05-17T15:01:02;10.20;;;4.60;;
5147;SDS011;2592;48.140;7.614;2023-05-17T15:03:30;5.30;;;3.40;;
5147;SDS011;2592;48.140;7.614;2023-05-17T15:05:56;7.70;;;3.77;;
5147;SDS011;2592;48.140;7.614;2023-05-17T15:08:23;7.30;;;4.03;;
5147;SDS011;2592;48.140;7.614;2023-05-17T15:10:50;9.30;;;3.87;;
5147;SDS011;2592;48.140;7.614;2023-05-17T15:13:16;5.40;;;3.60;;
5147;SDS011;2592;48.140;7.614;2023-05-17T15:15:43;4.83;;;3.33;;
5147;SDS011;2592;48.140;7.614;2023-05-17T15:18:10;7.77;;;4.10;;